Time,TemperatureF,DewpointF,PressureIn,WindDirection,WindDirectionDegrees,WindSpeedMPH,WindSpeedGustMPH,Humidity,HourlyPrecipIn,Conditions,Clouds,dailyrainin,SoftwareType,DateUTC
2013-04-29 00:00:00,61.1,39.2,30.12,SE,146,1.4,6.3,44,0.00,,SKC,0.00,VWS V14.00,2013-04-29 04:00:00,
2013-04-29 00:05:00,60.9,38.9,30.12,South,170,2.4,6.3,44,0.00,,SKC,0.00,VWS V14.00,2013-04-29 04:05:00,
2013-04-29 00:10:00,60.3,40.4,30.13,West,278,5.8,6.3,48,0.00,,SKC,0.00,VWS V14.00,2013-04-29 04:10:00,
2013-04-29 00:15:00,59.5,38.9,30.13,SW,217,2.7,6.3,46,0.00,,SKC,0.00,VWS V14.00,2013-04-29 04:15:00,
2013-04-29 00:20:00,59.9,38.8,30.13,SW,232,2.4,6.3,45,0.00,,SKC,0.00,VWS V14.00,2013-04-29 04:20:00,
2013-04-29 00:25:00,60.3,39.0,30.13,SSW,208,0.0,6.3,45,0.00,,SKC,0.00,VWS V14.00,2013-04-29 04:25:00,
2013-04-29 00:28:00,60.4,38.7,30.13,SSW,195,0.0,6.3,44,0.00,,SKC,0.00,VWS V14.00,2013-04-29 04:28:00,
2013-04-29 00:30:00,60.4,38.7,30.13,SSW,195,0.0,6.3,44,0.00,,OVC,0.00,VWS V14.00,2013-04-29 04:30:00,
2013-04-29 00:35:00,60.6,38.8,30.13,WSW,239,1.7,3.9,44,0.00,,SKC,0.00,VWS V14.00,2013-04-29 04:35:00,
2013-04-29 00:40:00,60.2,38.5,30.13,South,186,1.6,3.9,44,0.00,,SKC,0.00,VWS V14.00,2013-04-29 04:40:00,
2013-04-29 00:45:00,60.4,38.8,30.13,SW,229,5.2,7.1,45,0.00,,SKC,0.00,VWS V14.00,2013-04-29 04:45:00,
2013-04-29 00:50:00,60.4,39.3,30.14,SW,217,4.1,10.9,46,0.00,,SKC,0.00,VWS V14.00,2013-04-29 04:50:00,
2013-04-29 00:55:00,60.6,39.2,30.14,WSW,253,4.5,10.9,45,0.00,,SKC,0.00,VWS V14.00,2013-04-29 04:55:00,
2013-04-29 01:00:00,60.5,39.8,30.15,WSW,255,8.5,8.5,46,0.00,,SKC,0.00,VWS V14.00,2013-04-29 05:00:00,
2013-04-29 01:05:00,60.3,41.9,30.15,West,271,8.4,14.9,50,0.00,,SKC,0.00,VWS V14.00,2013-04-29 05:05:00,
2013-04-29 01:10:00,59.7,43.3,30.15,West,266,6.5,14.9,55,0.00,,SKC,0.00,VWS V14.00,2013-04-29 05:10:00,
2013-04-29 01:15:00,59.3,43.1,30.15,WSW,249,6.8,15.8,55,0.00,,SKC,0.00,VWS V14.00,2013-04-29 05:15:00,
2013-04-29 01:20:00,59.2,43.5,30.15,SW,218,8.0,15.8,56,0.00,,SKC,0.00,VWS V14.00,2013-04-29 05:20:00,
2013-04-29 01:25:00,59.1,43.7,30.15,West,267,5.5,15.8,57,0.00,,SKC,0.00,VWS V14.00,2013-04-29 05:25:00,
2013-04-29 01:30:00,58.7,43.8,30.15,WSW,256,7.7,9.8,58,0.00,,SKC,0.00,VWS V14.00,2013-04-29 05:30:00,
2013-04-29 01:35:00,58.5,43.6,30.15,WSW,256,3.7,9.8,58,0.00,,SKC,0.00,VWS V14.00,2013-04-29 05:35:00,
2013-04-29 01:40:00,58.4,43.8,30.15,WSW,257,6.6,9.8,58,0.00,,SKC,0.00,VWS V14.00,2013-04-29 05:40:00,
2013-04-29 01:45:00,58.2,43.6,30.15,WSW,253,4.6,10.7,58,0.00,,SKC,0.00,VWS V14.00,2013-04-29 05:45:00,
2013-04-29 01:50:00,58.1,43.8,30.15,WSW,242,3.6,10.7,59,0.00,,SKC,0.00,VWS V14.00,2013-04-29 05:50:00,
2013-04-29 01:55:00,58.0,43.9,30.15,WSW,248,2.8,10.7,59,0.00,,SKC,0.00,VWS V14.00,2013-04-29 05:55:00,
2013-04-29 02:00:00,57.8,43.7,30.15,SW,218,3.9,10.0,59,0.00,,SKC,0.00,VWS V14.00,2013-04-29 06:00:00,
2013-04-29 02:05:00,57.7,43.5,30.15,SW,232,3.4,10.0,59,0.00,,SKC,0.00,VWS V14.00,2013-04-29 06:05:00,
2013-04-29 02:10:00,57.6,43.6,30.16,WSW,249,2.2,11.0,59,0.00,,SKC,0.00,VWS V14.00,2013-04-29 06:10:00,
2013-04-29 02:16:00,57.2,43.3,30.16,West,267,9.0,11.1,60,0.00,,SKC,0.00,VWS V14.00,2013-04-29 06:16:00,
2013-04-29 02:21:00,57.3,43.5,30.16,WSW,240,6.2,11.1,60,0.00,,SKC,0.00,VWS V14.00,2013-04-29 06:21:00,
2013-04-29 02:26:00,56.9,43.3,30.16,SW,235,2.7,11.1,60,0.00,,SKC,0.00,VWS V14.00,2013-04-29 06:26:00,
2013-04-29 02:30:00,57.0,43.5,30.16,WSW,246,2.4,11.1,60,0.00,,OVC,0.00,VWS V14.00,2013-04-29 06:30:00,
2013-04-29 02:31:00,57.1,43.6,30.16,NW,307,1.9,6.8,61,0.00,,SKC,0.00,VWS V14.00,2013-04-29 06:31:00,
2013-04-29 02:36:00,56.8,43.5,30.16,SW,228,2.9,6.8,61,0.00,,SKC,0.00,VWS V14.00,2013-04-29 06:36:00,
2013-04-29 02:41:00,56.8,43.7,30.16,SW,228,1.4,6.8,62,0.00,,SKC,0.00,VWS V14.00,2013-04-29 06:41:00,
2013-04-29 02:46:00,56.7,43.8,30.16,SW,214,0.0,6.8,62,0.00,,SKC,0.00,VWS V14.00,2013-04-29 06:46:00,
2013-04-29 02:51:00,56.3,43.8,30.16,WSW,250,3.4,6.8,63,0.00,,SKC,0.00,VWS V14.00,2013-04-29 06:51:00,
2013-04-29 02:56:00,56.3,44.0,30.16,SSW,208,0.6,6.8,63,0.00,,SKC,0.00,VWS V14.00,2013-04-29 06:56:00,
2013-04-29 03:00:00,56.1,43.9,30.16,SW,231,2.2,6.8,64,0.00,,OVC,0.00,VWS V14.00,2013-04-29 07:00:00,
2013-04-29 03:01:00,56.0,43.9,30.16,SSW,210,0.7,2.2,64,0.00,,SKC,0.00,VWS V14.00,2013-04-29 07:01:00,
2013-04-29 03:06:00,55.9,43.8,30.16,SSW,202,0.6,2.2,64,0.00,,SKC,0.00,VWS V14.00,2013-04-29 07:06:00,
2013-04-29 03:11:00,55.7,43.6,30.16,South,188,0.0,2.2,64,0.00,,SKC,0.00,VWS V14.00,2013-04-29 07:11:00,
2013-04-29 03:16:00,55.5,43.6,30.16,South,186,0.0,2.2,64,0.00,,SKC,0.00,VWS V14.00,2013-04-29 07:16:00,
2013-04-29 03:21:00,55.3,43.5,30.16,South,186,0.0,2.2,64,0.00,,SKC,0.00,VWS V14.00,2013-04-29 07:21:00,
2013-04-29 03:26:00,55.1,43.5,30.16,South,186,0.0,2.2,65,0.00,,SKC,0.00,VWS V14.00,2013-04-29 07:26:00,
2013-04-29 03:30:00,55.1,43.5,30.16,South,186,0.0,2.2,65,0.00,,OVC,0.00,VWS V14.00,2013-04-29 07:30:00,
2013-04-29 03:31:00,54.9,43.3,30.16,South,186,0.0,0.0,65,0.00,,SKC,0.00,VWS V14.00,2013-04-29 07:31:00,
2013-04-29 03:36:00,54.7,43.2,30.16,South,186,0.0,0.0,65,0.00,,SKC,0.00,VWS V14.00,2013-04-29 07:36:00,
2013-04-29 03:41:00,54.5,43.2,30.16,South,186,0.0,0.0,65,0.00,,SKC,0.00,VWS V14.00,2013-04-29 07:41:00,
2013-04-29 03:46:00,54.3,43.2,30.16,South,186,0.0,0.0,66,0.00,,SKC,0.00,VWS V14.00,2013-04-29 07:46:00,
2013-04-29 03:51:00,54.0,43.2,30.16,South,186,0.0,0.0,67,0.00,,SKC,0.00,VWS V14.00,2013-04-29 07:51:00,
2013-04-29 03:56:00,53.9,43.3,30.16,South,186,0.0,0.0,67,0.00,,SKC,0.00,VWS V14.00,2013-04-29 07:56:00,
2013-04-29 04:00:00,53.9,43.4,30.16,South,186,0.0,0.0,67,0.00,,OVC,0.00,VWS V14.00,2013-04-29 08:00:00,
2013-04-29 04:01:00,53.7,43.2,30.16,South,186,0.0,0.0,68,0.00,,SKC,0.00,VWS V14.00,2013-04-29 08:01:00,
2013-04-29 04:06:00,53.6,43.2,30.16,SE,134,0.0,1.4,68,0.00,,SKC,0.00,VWS V14.00,2013-04-29 08:06:00,
2013-04-29 04:11:00,53.7,43.1,30.16,SE,134,0.0,1.4,67,0.00,,SKC,0.00,VWS V14.00,2013-04-29 08:11:00,
2013-04-29 04:16:00,53.8,43.0,30.16,SE,134,0.0,1.4,67,0.00,,SKC,0.00,VWS V14.00,2013-04-29 08:16:00,
2013-04-29 04:21:00,54.1,43.2,30.16,SE,134,0.0,1.4,66,0.00,,SKC,0.00,VWS V14.00,2013-04-29 08:21:00,
2013-04-29 04:26:00,54.0,43.2,30.16,SE,134,0.0,1.4,67,0.00,,SKC,0.00,VWS V14.00,2013-04-29 08:26:00,
2013-04-29 04:30:00,53.8,43.0,30.16,SE,134,0.0,1.4,67,0.00,,OVC,0.00,VWS V14.00,2013-04-29 08:30:00,
2013-04-29 04:31:00,53.8,43.0,30.17,SE,134,0.0,0.0,67,0.00,,SKC,0.00,VWS V14.00,2013-04-29 08:31:00,
2013-04-29 04:36:00,53.6,43.2,30.16,SE,134,0.0,0.0,68,0.00,,SKC,0.00,VWS V14.00,2013-04-29 08:36:00,
2013-04-29 04:41:00,53.5,43.4,30.17,SE,134,0.0,0.0,69,0.00,,SKC,0.00,VWS V14.00,2013-04-29 08:41:00,
2013-04-29 04:46:00,53.2,43.2,30.17,SE,134,0.0,0.0,69,0.00,,SKC,0.00,VWS V14.00,2013-04-29 08:46:00,
2013-04-29 04:51:00,53.4,43.2,30.17,South,183,7.0,8.8,68,0.00,,SKC,0.00,VWS V14.00,2013-04-29 08:51:00,
2013-04-29 04:56:00,54.5,42.9,30.16,SSE,152,3.4,12.4,65,0.00,,SKC,0.00,VWS V14.00,2013-04-29 08:56:00,
2013-04-29 05:00:00,54.8,42.7,30.16,SSW,193,6.1,12.4,64,0.00,,OVC,0.00,VWS V14.00,2013-04-29 09:00:00,
2013-04-29 05:01:00,55.0,42.7,30.16,SE,145,6.3,9.6,63,0.00,,SKC,0.00,VWS V14.00,2013-04-29 09:01:00,
2013-04-29 05:06:00,55.3,42.7,30.16,SSE,153,7.1,9.6,62,0.00,,SKC,0.00,VWS V14.00,2013-04-29 09:06:00,
2013-04-29 05:11:00,55.6,42.8,30.16,SSE,162,9.3,10.6,62,0.00,,SKC,0.00,VWS V14.00,2013-04-29 09:11:00,
2013-04-29 05:16:00,55.9,42.7,30.17,SSW,195,6.6,16.8,61,0.00,,SKC,0.00,VWS V14.00,2013-04-29 09:16:00,
2013-04-29 05:21:00,56.0,42.8,30.17,SSW,211,8.2,16.8,61,0.00,,SKC,0.00,VWS V14.00,2013-04-29 09:21:00,
2013-04-29 05:26:00,56.2,42.8,30.17,SSW,207,6.5,16.8,61,0.00,,SKC,0.00,VWS V14.00,2013-04-29 09:26:00,
2013-04-29 05:30:00,56.2,42.7,30.17,South,172,9.0,16.8,60,0.00,,OVC,0.00,VWS V14.00,2013-04-29 09:30:00,
2013-04-29 05:31:00,56.3,42.9,30.17,SSW,198,8.3,12.6,61,0.00,,SKC,0.00,VWS V14.00,2013-04-29 09:31:00,
2013-04-29 05:36:00,56.4,43.2,30.17,SSE,148,7.3,12.6,61,0.00,,SKC,0.00,VWS V14.00,2013-04-29 09:36:00,
2013-04-29 05:41:00,56.1,43.2,30.17,SSE,163,9.7,12.6,62,0.00,,SKC,0.00,VWS V14.00,2013-04-29 09:41:00,
2013-04-29 05:46:00,56.2,43.2,30.17,SSW,193,8.0,12.6,62,0.00,,SKC,0.00,VWS V14.00,2013-04-29 09:46:00,
2013-04-29 05:51:00,56.1,43.1,30.18,SSE,153,6.0,12.6,62,0.00,,SKC,0.00,VWS V14.00,2013-04-29 09:51:00,
2013-04-29 05:56:00,56.2,43.0,30.18,South,191,4.5,12.6,61,0.00,,SKC,0.00,VWS V14.00,2013-04-29 09:56:00,
2013-04-29 06:00:00,56.2,42.9,30.17,SSE,159,9.8,12.6,61,0.00,,OVC,0.00,VWS V14.00,2013-04-29 10:00:00,
2013-04-29 06:01:00,56.2,42.9,30.18,SSE,162,5.3,11.5,61,0.00,,SKC,0.00,VWS V14.00,2013-04-29 10:01:00,
2013-04-29 06:06:00,56.2,42.9,30.18,South,186,6.3,11.5,61,0.00,,SKC,0.00,VWS V14.00,2013-04-29 10:06:00,
2013-04-29 06:11:00,56.2,42.8,30.18,SSE,153,5.3,11.5,61,0.00,,SKC,0.00,VWS V14.00,2013-04-29 10:11:00,
2013-04-29 06:16:00,56.2,42.9,30.18,South,179,3.7,11.5,61,0.00,,SKC,0.00,VWS V14.00,2013-04-29 10:16:00,
2013-04-29 06:21:00,56.2,42.6,30.18,South,191,8.4,15.3,60,0.00,,SKC,0.00,VWS V14.00,2013-04-29 10:21:00,
2013-04-29 06:26:00,56.2,42.7,30.18,SSE,152,6.0,15.3,60,0.00,,SKC,0.00,VWS V14.00,2013-04-29 10:26:00,
2013-04-29 06:30:00,56.3,42.8,30.18,South,169,6.5,15.3,60,0.00,,OVC,0.00,VWS V14.00,2013-04-29 10:30:00,
2013-04-29 06:31:00,56.2,42.8,30.18,South,176,6.8,9.6,61,0.00,,SKC,0.00,VWS V14.00,2013-04-29 10:31:00,
2013-04-29 06:36:00,56.4,42.8,30.18,South,169,8.6,12.4,60,0.00,,SKC,0.00,VWS V14.00,2013-04-29 10:36:00,
2013-04-29 06:41:00,56.3,42.6,30.18,SE,141,7.0,12.4,60,0.00,,SKC,0.00,VWS V14.00,2013-04-29 10:41:00,
2013-04-29 06:46:00,56.4,42.4,30.18,SSE,155,8.0,14.0,59,0.00,,SKC,0.00,VWS V14.00,2013-04-29 10:46:00,
2013-04-29 06:51:00,56.4,42.5,30.18,South,176,7.6,14.0,60,0.00,,SKC,0.00,VWS V14.00,2013-04-29 10:51:00,
2013-04-29 06:56:00,56.6,42.3,30.18,South,170,9.6,17.0,59,0.00,,SKC,0.00,VWS V14.00,2013-04-29 10:56:00,
2013-04-29 07:00:00,56.5,42.5,30.17,SSE,162,6.3,17.0,59,0.00,,OVC,0.00,VWS V14.00,2013-04-29 11:00:00,
2013-04-29 07:01:00,56.7,42.5,30.18,SW,222,3.4,13.0,59,0.00,,SKC,0.00,VWS V14.00,2013-04-29 11:01:00,
2013-04-29 07:06:00,56.7,42.5,30.18,SSW,208,5.5,13.1,59,0.00,,SKC,0.00,VWS V14.00,2013-04-29 11:06:00,
2013-04-29 07:11:00,56.6,42.5,30.18,SE,132,5.9,13.1,59,0.00,,SKC,0.00,VWS V14.00,2013-04-29 11:11:00,
2013-04-29 07:16:00,56.5,42.2,30.18,SSE,153,9.8,13.1,59,0.00,,SKC,0.00,VWS V14.00,2013-04-29 11:16:00,
2013-04-29 07:22:00,56.6,42.4,30.18,SE,138,7.3,13.1,59,0.00,,SKC,0.00,VWS V14.00,2013-04-29 11:22:00,
2013-04-29 07:27:00,56.7,42.4,30.18,SSE,158,7.1,13.1,59,0.00,,SKC,0.00,VWS V14.00,2013-04-29 11:27:00,
2013-04-29 07:30:00,56.7,42.4,30.18,SSW,210,7.2,13.1,59,0.00,,OVC,0.00,VWS V14.00,2013-04-29 11:30:00,
2013-04-29 07:32:00,56.9,42.6,30.18,SSE,160,5.3,9.4,59,0.00,,SKC,0.00,VWS V14.00,2013-04-29 11:32:00,
2013-04-29 07:37:00,56.9,42.4,30.18,SSE,160,8.1,14.4,58,0.00,,SKC,0.00,VWS V14.00,2013-04-29 11:37:00,
2013-04-29 07:42:00,57.0,42.7,30.18,SE,145,5.8,14.4,59,0.00,,SKC,0.00,VWS V14.00,2013-04-29 11:42:00,
2013-04-29 07:47:00,57.0,42.7,30.18,SSE,153,7.0,14.4,59,0.00,,SKC,0.00,VWS V14.00,2013-04-29 11:47:00,
2013-04-29 07:52:00,57.1,42.6,30.18,ESE,107,3.4,14.4,58,0.00,,SKC,0.00,VWS V14.00,2013-04-29 11:52:00,
2013-04-29 07:57:00,57.2,43.0,30.18,SE,129,1.9,14.4,59,0.00,,SKC,0.00,VWS V14.00,2013-04-29 11:57:00,
2013-04-29 08:00:00,57.2,42.9,30.17,South,172,5.7,14.4,59,0.00,,OVC,0.00,VWS V14.00,2013-04-29 12:00:00,
2013-04-29 08:02:00,57.3,42.7,30.17,SE,138,7.3,9.7,58,0.00,,SKC,0.00,VWS V14.00,2013-04-29 12:02:00,
2013-04-29 08:07:00,57.5,41.8,30.17,SSE,150,9.6,17.1,56,0.00,,SKC,0.00,VWS V14.00,2013-04-29 12:07:00,
2013-04-29 08:12:00,57.9,42.3,30.17,SSE,166,8.1,17.1,56,0.00,,SKC,0.00,VWS V14.00,2013-04-29 12:12:00,
2013-04-29 08:17:00,58.4,41.8,30.17,SSE,165,18.5,19.3,54,0.00,,SKC,0.00,VWS V14.00,2013-04-29 12:17:00,
2013-04-29 08:22:00,58.4,41.5,30.17,South,170,9.1,19.6,53,0.00,,SKC,0.00,VWS V14.00,2013-04-29 12:22:00,
2013-04-29 08:27:00,58.8,42.0,30.17,SSW,204,2.3,19.6,54,0.00,,SKC,0.00,VWS V14.00,2013-04-29 12:27:00,
2013-04-29 08:30:00,58.7,42.1,30.17,SSE,158,5.8,19.6,54,0.00,,OVC,0.00,VWS V14.00,2013-04-29 12:30:00,
2013-04-29 08:32:00,58.8,42.0,30.17,SSE,156,9.8,13.6,54,0.00,,SKC,0.00,VWS V14.00,2013-04-29 12:32:00,
2013-04-29 08:37:00,58.7,42.0,30.17,SSE,156,9.9,15.9,54,0.00,,SKC,0.00,VWS V14.00,2013-04-29 12:37:00,
2013-04-29 08:53:00,58.4,41.3,30.17,SE,131,6.5,15.5,53,0.00,,OVC,0.00,VWS V14.00,2013-04-29 12:53:00,
2013-04-29 08:58:00,58.4,41.5,30.17,SE,142,8.0,15.5,53,0.00,,OVC,0.00,VWS V14.00,2013-04-29 12:58:00,
2013-04-29 09:00:00,57.2,42.9,30.17,South,172,5.7,14.4,59,0.00,,SCT,0.00,VWS V14.00,2013-04-29 13:00:00,
2013-04-29 09:03:00,58.5,41.9,30.17,SE,134,4.0,14.5,54,0.00,,OVC,0.00,VWS V14.00,2013-04-29 13:03:00,
2013-04-29 09:08:00,58.6,42.0,30.17,WSW,238,2.2,14.5,54,0.00,,OVC,0.00,VWS V14.00,2013-04-29 13:08:00,
2013-04-29 09:13:00,58.4,41.8,30.17,SW,214,3.7,14.5,54,0.00,,OVC,0.00,VWS V14.00,2013-04-29 13:13:00,
2013-04-29 09:18:00,58.4,41.7,30.17,SE,146,9.5,14.5,54,0.00,,OVC,0.00,VWS V14.00,2013-04-29 13:18:00,
2013-04-29 09:23:00,58.3,41.7,30.17,SW,226,4.6,15.7,54,0.00,,OVC,0.00,VWS V14.00,2013-04-29 13:23:00,
2013-04-29 09:28:00,58.4,41.4,30.17,South,169,6.6,15.7,53,0.00,,OVC,0.00,VWS V14.00,2013-04-29 13:28:00,
2013-04-29 09:30:00,58.7,42.1,30.17,SSE,158,5.8,19.6,54,0.00,,SCT,0.00,VWS V14.00,2013-04-29 13:30:00,
2013-04-29 09:33:00,58.3,41.2,30.17,SW,217,6.2,12.0,53,0.00,,OVC,0.00,VWS V14.00,2013-04-29 13:33:00,
2013-04-29 09:38:00,58.3,41.1,30.17,SSW,193,4.6,13.4,53,0.00,,OVC,0.00,VWS V14.00,2013-04-29 13:38:00,
2013-04-29 09:43:00,58.3,41.1,30.17,South,191,5.8,13.9,53,0.00,,OVC,0.00,VWS V14.00,2013-04-29 13:43:00,
2013-04-29 09:48:00,58.3,41.3,30.17,South,181,5.6,13.9,53,0.00,,OVC,0.00,VWS V14.00,2013-04-29 13:48:00,
2013-04-29 09:53:00,58.4,41.3,30.17,SSW,195,3.2,16.8,53,0.00,,OVC,0.00,VWS V14.00,2013-04-29 13:53:00,
2013-04-29 09:58:00,58.4,41.5,30.17,SSW,202,6.5,16.8,53,0.00,,OVC,0.00,VWS V14.00,2013-04-29 13:58:00,
2013-04-29 10:00:00,58.4,41.5,30.17,SSE,149,7.8,15.5,53,0.00,,SCT,0.00,VWS V14.00,2013-04-29 14:00:00,
2013-04-29 10:03:00,58.4,41.3,30.17,South,183,4.8,10.1,53,0.00,,OVC,0.00,VWS V14.00,2013-04-29 14:03:00,
2013-04-29 10:08:00,58.3,41.7,30.17,South,183,3.2,10.1,54,0.00,,OVC,0.00,VWS V14.00,2013-04-29 14:08:00,
2013-04-29 10:13:00,58.6,42.2,30.17,SSE,156,2.7,13.4,54,0.00,,OVC,0.00,VWS V14.00,2013-04-29 14:13:00,
2013-04-29 10:18:00,58.6,42.1,30.17,SE,145,2.1,13.4,54,0.00,,OVC,0.00,VWS V14.00,2013-04-29 14:18:00,
2013-04-29 10:23:00,58.7,42.2,30.17,South,173,0.0,13.4,54,0.00,,OVC,0.00,VWS V14.00,2013-04-29 14:23:00,
2013-04-29 10:28:00,58.6,42.3,30.17,SSW,200,4.3,13.4,55,0.00,,OVC,0.00,VWS V14.00,2013-04-29 14:28:00,
2013-04-29 10:30:00,58.3,41.3,30.17,SSE,167,7.7,15.7,53,0.00,,SCT,0.00,VWS V14.00,2013-04-29 14:30:00,
2013-04-29 10:33:00,58.7,42.4,30.17,SW,235,4.2,6.0,55,0.00,,OVC,0.00,VWS V14.00,2013-04-29 14:33:00,
2013-04-29 10:38:00,58.9,42.5,30.17,West,259,2.9,8.6,54,0.00,,OVC,0.00,VWS V14.00,2013-04-29 14:38:00,
2013-04-29 10:43:00,58.8,42.6,30.17,SSW,193,1.9,8.6,55,0.00,,OVC,0.00,VWS V14.00,2013-04-29 14:43:00,
2013-04-29 10:48:00,59.0,42.3,30.17,South,191,4.8,8.6,54,0.00,,OVC,0.00,VWS V14.00,2013-04-29 14:48:00,
2013-04-29 10:53:00,59.0,42.3,30.17,SSE,150,5.0,8.6,54,0.00,,OVC,0.00,VWS V14.00,2013-04-29 14:53:00,
2013-04-29 10:58:00,59.2,42.7,30.17,South,184,3.5,8.6,54,0.00,,OVC,0.00,VWS V14.00,2013-04-29 14:58:00,
2013-04-29 11:00:00,58.4,41.3,30.17,South,173,3.7,16.8,53,0.00,,SCT,0.00,VWS V14.00,2013-04-29 15:00:00,
2013-04-29 11:03:00,59.4,42.6,30.17,SSW,200,2.4,7.4,54,0.00,,OVC,0.00,VWS V14.00,2013-04-29 15:03:00,
2013-04-29 11:08:00,59.5,42.5,30.17,SSW,204,7.1,12.1,53,0.00,,OVC,0.00,VWS V14.00,2013-04-29 15:08:00,
2013-04-29 11:13:00,59.2,42.2,30.17,South,187,7.4,12.3,53,0.00,,OVC,0.00,VWS V14.00,2013-04-29 15:13:00,
2013-04-29 11:18:00,59.4,42.6,30.17,SSW,210,4.0,12.3,54,0.00,,OVC,0.00,VWS V14.00,2013-04-29 15:18:00,
2013-04-29 11:23:00,59.3,42.3,30.17,South,177,11.2,16.9,53,0.00,,OVC,0.00,VWS V14.00,2013-04-29 15:23:00,
2013-04-29 11:28:00,59.2,42.2,30.17,South,173,8.0,16.9,53,0.00,,OVC,0.00,VWS V14.00,2013-04-29 15:28:00,
2013-04-29 11:30:00,58.6,42.3,30.17,SSW,198,4.5,13.4,55,0.00,,SCT,0.00,VWS V14.00,2013-04-29 15:30:00,
2013-04-29 11:33:00,59.2,42.2,30.17,SSW,202,6.6,12.6,53,0.00,,OVC,0.00,VWS V14.00,2013-04-29 15:33:00,
2013-04-29 11:38:00,59.1,42.5,30.17,SSW,207,10.3,13.5,54,0.00,,OVC,0.00,VWS V14.00,2013-04-29 15:38:00,
2013-04-29 11:43:00,59.2,43.2,30.17,SSW,197,2.4,13.5,55,0.00,,OVC,0.00,VWS V14.00,2013-04-29 15:43:00,
2013-04-29 11:48:00,59.0,43.2,30.17,South,188,7.2,13.5,56,0.00,,OVC,0.00,VWS V14.00,2013-04-29 15:48:00,
2013-04-29 11:53:00,59.0,43.4,30.17,SSE,159,7.5,16.2,56,0.00,,OVC,0.00,VWS V14.00,2013-04-29 15:53:00,
2013-04-29 11:58:00,59.2,43.8,30.17,SSE,163,9.1,10.3,56,0.00,,OVC,0.00,VWS V14.00,2013-04-29 15:58:00,
2013-04-29 12:00:00,59.2,42.7,30.17,South,186,4.5,8.6,54,0.00,,SCT,0.00,VWS V14.00,2013-04-29 16:00:00,
2013-04-29 12:03:00,59.3,43.4,30.16,SSE,162,5.6,14.7,56,0.00,,OVC,0.00,VWS V14.00,2013-04-29 16:03:00,
2013-04-29 12:08:00,59.4,44.0,30.17,SSW,212,7.0,14.7,57,0.00,,OVC,0.00,VWS V14.00,2013-04-29 16:08:00,
2013-04-29 12:13:00,59.3,44.0,30.16,SW,222,6.1,14.7,57,0.00,,OVC,0.00,VWS V14.00,2013-04-29 16:13:00,
2013-04-29 12:18:00,59.0,43.9,30.17,SSW,201,6.0,14.7,57,0.00,,OVC,0.00,VWS V14.00,2013-04-29 16:18:00,
2013-04-29 12:23:00,59.1,44.3,30.17,South,180,3.6,14.7,58,0.00,,OVC,0.00,VWS V14.00,2013-04-29 16:23:00,
2013-04-29 12:28:00,59.0,44.4,30.16,South,177,9.3,13.2,58,0.00,,OVC,0.00,VWS V14.00,2013-04-29 16:28:00,
2013-04-29 12:30:00,59.2,42.2,30.17,South,173,8.0,16.9,53,0.00,,SCT,0.00,VWS V14.00,2013-04-29 16:30:00,
2013-04-29 12:33:00,58.8,44.5,30.16,SW,224,5.2,17.3,59,0.00,,OVC,0.00,VWS V14.00,2013-04-29 16:33:00,
2013-04-29 12:38:00,58.9,44.3,30.16,SSW,207,6.3,17.3,58,0.00,,OVC,0.00,VWS V14.00,2013-04-29 16:38:00,
2013-04-29 12:43:00,59.0,44.6,30.16,SW,226,6.7,17.3,59,0.00,,OVC,0.00,VWS V14.00,2013-04-29 16:43:00,
2013-04-29 12:48:00,59.1,44.6,30.16,South,179,4.0,17.3,58,0.00,,OVC,0.00,VWS V14.00,2013-04-29 16:48:00,
2013-04-29 12:53:00,59.2,45.3,30.16,SSW,197,4.0,17.3,60,0.00,,OVC,0.00,VWS V14.00,2013-04-29 16:53:00,
2013-04-29 12:58:00,59.2,45.2,30.16,SW,226,3.2,3.3,60,0.00,,OVC,0.00,VWS V14.00,2013-04-29 16:58:00,
2013-04-29 13:00:00,59.0,43.6,30.17,SSE,166,10.3,16.2,56,0.00,,SCT,0.00,VWS V14.00,2013-04-29 17:00:00,
2013-04-29 13:03:00,58.8,45.0,30.16,South,177,9.6,15.7,60,0.00,,OVC,0.00,VWS V14.00,2013-04-29 17:03:00,
2013-04-29 13:08:00,58.4,45.3,30.16,SSW,204,7.9,15.7,62,0.00,,OVC,0.00,VWS V14.00,2013-04-29 17:08:00,
2013-04-29 13:13:00,58.5,45.9,30.16,SSW,198,6.7,15.7,63,0.00,,OVC,0.00,VWS V14.00,2013-04-29 17:13:00,
2013-04-29 13:18:00,58.3,46.1,30.16,SSW,205,7.5,15.7,64,0.00,,OVC,0.00,VWS V14.00,2013-04-29 17:18:00,
2013-04-29 13:23:00,58.3,46.0,30.16,WSW,239,5.1,15.7,64,0.00,,OVC,0.00,VWS V14.00,2013-04-29 17:23:00,
2013-04-29 13:28:00,58.3,46.0,30.16,SSW,194,3.0,4.9,64,0.00,,OVC,0.00,VWS V14.00,2013-04-29 17:28:00,
2013-04-29 13:30:00,59.0,44.4,30.16,South,176,13.2,16.9,58,0.00,,SCT,0.00,VWS V14.00,2013-04-29 17:30:00,
2013-04-29 13:33:00,58.4,45.9,30.16,SW,221,4.3,12.9,63,0.00,,OVC,0.00,VWS V14.00,2013-04-29 17:33:00,
2013-04-29 13:38:00,58.6,46.1,30.16,South,184,7.0,12.9,63,0.00,,OVC,0.00,VWS V14.00,2013-04-29 17:38:00,
2013-04-29 13:43:00,58.3,46.1,30.16,SW,228,7.0,12.9,64,0.00,,OVC,0.00,VWS V14.00,2013-04-29 17:43:00,
2013-04-29 13:48:00,58.3,46.4,30.16,WSW,243,3.8,12.9,65,0.00,,OVC,0.00,VWS V14.00,2013-04-29 17:48:00,
2013-04-29 13:53:00,58.4,46.7,30.15,SW,214,1.4,12.9,65,0.00,,OVC,0.00,VWS V14.00,2013-04-29 17:53:00,
2013-04-29 13:58:00,58.3,46.2,30.15,SSE,150,2.9,4.0,64,0.00,,OVC,0.00,VWS V14.00,2013-04-29 17:58:00,
2013-04-29 14:00:00,59.2,45.2,30.16,SSW,204,2.3,17.3,60,0.00,,SCT,0.00,VWS V14.00,2013-04-29 18:00:00,
2013-04-29 14:03:00,58.7,46.7,30.15,South,177,0.0,4.0,64,0.00,,OVC,0.00,VWS V14.00,2013-04-29 18:03:00,
2013-04-29 14:08:00,58.7,46.8,30.15,South,177,0.0,4.0,64,0.00,,OVC,0.00,VWS V14.00,2013-04-29 18:08:00,
2013-04-29 14:13:00,58.9,46.3,30.15,SW,229,0.0,4.0,63,0.00,,OVC,0.00,VWS V14.00,2013-04-29 18:13:00,
2013-04-29 14:18:00,59.2,46.6,30.15,SW,229,0.0,4.0,63,0.00,,OVC,0.00,VWS V14.00,2013-04-29 18:18:00,
2013-04-29 14:23:00,59.2,46.2,30.15,South,181,0.0,4.0,62,0.00,,OVC,0.00,VWS V14.00,2013-04-29 18:23:00,
2013-04-29 14:28:00,59.5,46.5,30.14,SSW,195,0.0,0.7,62,0.00,,OVC,0.00,VWS V14.00,2013-04-29 18:28:00,
2013-04-29 14:30:00,58.3,46.2,30.16,SSE,159,4.9,15.7,64,0.00,,SCT,0.00,VWS V14.00,2013-04-29 18:30:00,
2013-04-29 14:34:00,59.6,46.4,30.14,South,179,2.8,4.0,62,0.00,,OVC,0.00,VWS V14.00,2013-04-29 18:34:00,
2013-04-29 14:39:00,59.9,45.6,30.14,SSE,162,4.3,7.5,59,0.00,,OVC,0.00,VWS V14.00,2013-04-29 18:39:00,
2013-04-29 14:44:00,60.4,45.8,30.14,SW,232,3.2,7.5,58,0.00,,OVC,0.00,VWS V14.00,2013-04-29 18:44:00,
2013-04-29 14:49:00,60.6,45.6,30.14,SSW,194,1.7,7.5,58,0.00,,OVC,0.00,VWS V14.00,2013-04-29 18:49:00,
2013-04-29 14:54:00,60.7,45.5,30.14,SE,139,3.5,8.0,57,0.00,,OVC,0.00,VWS V14.00,2013-04-29 18:54:00,
2013-04-29 14:59:00,60.9,45.1,30.14,SSE,152,5.7,8.8,56,0.00,,OVC,0.00,VWS V14.00,2013-04-29 18:59:00,
2013-04-29 15:00:00,58.3,46.2,30.15,SSE,152,4.0,12.9,64,0.00,,SCT,0.00,VWS V14.00,2013-04-29 19:00:00,
2013-04-29 15:04:00,60.9,45.0,30.14,South,169,9.1,10.3,56,0.00,,OVC,0.00,VWS V14.00,2013-04-29 19:04:00,
2013-04-29 15:09:00,61.0,45.3,30.14,South,180,3.7,10.3,56,0.00,,OVC,0.00,VWS V14.00,2013-04-29 19:09:00,
2013-04-29 15:14:00,61.2,45.6,30.14,SE,135,3.2,10.3,56,0.00,,OVC,0.00,VWS V14.00,2013-04-29 19:14:00,
2013-04-29 15:19:00,61.1,45.1,30.14,South,170,5.6,11.9,56,0.00,,OVC,0.00,VWS V14.00,2013-04-29 19:19:00,
2013-04-29 15:24:00,61.2,45.3,30.14,South,177,7.4,11.9,56,0.00,,OVC,0.00,VWS V14.00,2013-04-29 19:24:00,
2013-04-29 15:29:00,61.5,45.8,30.14,South,191,3.6,5.8,56,0.00,,OVC,0.00,VWS V14.00,2013-04-29 19:29:00,
2013-04-29 15:30:00,59.4,46.3,30.14,SSW,195,0.7,4.0,62,0.00,,SCT,0.00,VWS V14.00,2013-04-29 19:30:00,
2013-04-29 15:34:00,61.4,45.5,30.14,South,170,6.9,12.8,56,0.00,,OVC,0.00,VWS V14.00,2013-04-29 19:34:00,
2013-04-29 15:39:00,61.5,45.9,30.14,SW,236,7.1,12.8,56,0.00,,OVC,0.00,VWS V14.00,2013-04-29 19:39:00,
2013-04-29 15:44:00,61.4,45.9,30.13,ESE,115,5.3,13.6,57,0.00,,OVC,0.00,VWS V14.00,2013-04-29 19:44:00,
2013-04-29 15:49:00,61.4,45.6,30.13,SSE,162,6.8,13.6,56,0.00,,OVC,0.00,VWS V14.00,2013-04-29 19:49:00,
2013-04-29 15:54:00,61.5,45.6,30.13,SSE,165,9.3,13.6,56,0.00,,OVC,0.00,VWS V14.00,2013-04-29 19:54:00,
2013-04-29 15:59:00,61.4,45.5,30.13,South,172,5.5,9.1,56,0.00,,OVC,0.00,VWS V14.00,2013-04-29 19:59:00,
2013-04-29 16:00:00,60.9,45.7,30.14,SSE,152,8.8,10.8,57,0.00,,SCT,0.00,VWS V14.00,2013-04-29 20:00:00,
2013-04-29 16:04:00,61.4,45.5,30.13,South,170,6.5,14.2,56,0.00,,OVC,0.00,VWS V14.00,2013-04-29 20:04:00,
2013-04-29 16:09:00,61.5,45.9,30.14,SSE,156,11.1,14.4,56,0.00,,OVC,0.00,VWS V14.00,2013-04-29 20:09:00,
2013-04-29 16:14:00,61.3,45.6,30.13,South,177,5.9,15.3,56,0.00,,OVC,0.00,VWS V14.00,2013-04-29 20:14:00,
2013-04-29 16:19:00,61.4,46.0,30.13,SW,215,4.8,15.3,57,0.00,,OVC,0.00,VWS V14.00,2013-04-29 20:19:00,
2013-04-29 16:24:00,61.4,46.2,30.14,SW,214,6.8,15.3,57,0.00,,OVC,0.00,VWS V14.00,2013-04-29 20:24:00,
2013-04-29 16:29:00,61.3,46.4,30.13,SSE,167,6.6,8.6,58,0.00,,OVC,0.00,VWS V14.00,2013-04-29 20:29:00,
2013-04-29 16:30:00,61.4,45.6,30.14,South,179,5.8,11.9,56,0.00,,SCT,0.00,VWS V14.00,2013-04-29 20:30:00,
2013-04-29 16:34:00,61.2,46.1,30.13,South,179,7.5,9.5,58,0.00,,OVC,0.00,VWS V14.00,2013-04-29 20:34:00,
2013-04-29 16:39:00,61.1,45.9,30.13,WSW,240,7.4,16.0,57,0.00,,OVC,0.00,VWS V14.00,2013-04-29 20:39:00,
2013-04-29 16:44:00,61.2,46.1,30.13,WSW,238,7.3,16.0,58,0.00,,OVC,0.00,VWS V14.00,2013-04-29 20:44:00,
2013-04-29 16:49:00,61.0,45.8,30.13,SE,141,6.5,16.0,57,0.00,,OVC,0.00,VWS V14.00,2013-04-29 20:49:00,
2013-04-29 16:54:00,61.0,45.9,30.13,WSW,240,5.0,16.0,58,0.00,,OVC,0.00,VWS V14.00,2013-04-29 20:54:00,
2013-04-29 16:59:00,60.9,45.7,30.13,SSE,158,8.5,13.4,57,0.00,,OVC,0.00,VWS V14.00,2013-04-29 20:59:00,
2013-04-29 17:00:00,61.5,45.7,30.13,South,186,7.1,13.6,56,0.00,,SCT,0.00,VWS V14.00,2013-04-29 21:00:00,
2013-04-29 17:04:00,61.0,45.9,30.14,SSE,162,8.9,15.8,58,0.00,,OVC,0.00,VWS V14.00,2013-04-29 21:04:00,
2013-04-29 17:09:00,60.8,45.8,30.13,SSE,153,7.9,15.8,58,0.00,,OVC,0.00,VWS V14.00,2013-04-29 21:09:00,
2013-04-29 17:14:00,61.0,46.4,30.13,SW,214,3.7,15.8,58,0.00,,OVC,0.00,VWS V14.00,2013-04-29 21:14:00,
2013-04-29 17:19:00,60.9,46.0,30.13,SW,221,6.4,15.8,58,0.00,,OVC,0.00,VWS V14.00,2013-04-29 21:19:00,
2013-04-29 17:24:00,60.9,46.0,30.13,South,177,7.9,15.8,58,0.00,,OVC,0.00,VWS V14.00,2013-04-29 21:24:00,
2013-04-29 17:29:00,61.1,46.1,30.13,South,180,3.7,12.2,58,0.00,,OVC,0.00,VWS V14.00,2013-04-29 21:29:00,
2013-04-29 17:30:00,61.3,46.3,30.13,South,183,4.5,15.3,58,0.00,,SCT,0.00,VWS V14.00,2013-04-29 21:30:00,
2013-04-29 17:34:00,60.8,46.0,30.13,South,170,10.6,12.7,58,0.00,,OVC,0.00,VWS V14.00,2013-04-29 21:34:00,
2013-04-29 17:39:00,61.0,46.2,30.13,SSE,159,6.9,13.5,58,0.00,,OVC,0.00,VWS V14.00,2013-04-29 21:39:00,
2013-04-29 17:44:00,61.0,46.0,30.13,South,173,9.3,13.5,58,0.00,,OVC,0.00,VWS V14.00,2013-04-29 21:44:00,
2013-04-29 17:49:00,61.1,46.2,30.13,SSE,165,2.1,13.5,58,0.00,,OVC,0.00,VWS V14.00,2013-04-29 21:49:00,
2013-04-29 17:54:00,60.9,46.0,30.14,SSE,160,5.5,14.0,58,0.00,,OVC,0.00,VWS V14.00,2013-04-29 21:54:00,
2013-04-29 17:59:00,61.0,46.5,30.14,SSW,194,4.4,11.9,59,0.00,,OVC,0.00,VWS V14.00,2013-04-29 21:59:00,
2013-04-29 18:00:00,60.9,46.1,30.13,SW,222,6.8,17.0,58,0.00,,SCT,0.00,VWS V14.00,2013-04-29 22:00:00,
2013-04-29 18:04:00,61.0,46.5,30.14,SW,218,8.1,11.9,59,0.00,,OVC,0.00,VWS V14.00,2013-04-29 22:04:00,
2013-04-29 18:09:00,60.8,46.1,30.14,SSW,200,9.1,13.5,58,0.00,,OVC,0.00,VWS V14.00,2013-04-29 22:09:00,
2013-04-29 18:14:00,60.8,46.2,30.14,SSE,160,7.7,13.9,59,0.00,,OVC,0.00,VWS V14.00,2013-04-29 22:14:00,
2013-04-29 18:19:00,60.7,45.9,30.14,SSE,149,10.6,15.1,58,0.00,,OVC,0.00,VWS V14.00,2013-04-29 22:19:00,
2013-04-29 18:24:00,60.7,45.9,30.14,South,170,8.0,15.5,58,0.00,,OVC,0.00,VWS V14.00,2013-04-29 22:24:00,
2013-04-29 18:29:00,60.5,46.0,30.14,South,181,6.0,12.9,59,0.00,,OVC,0.00,VWS V14.00,2013-04-29 22:29:00,
2013-04-29 18:30:00,61.0,46.0,30.13,SE,127,7.2,15.8,58,0.00,,SCT,0.00,VWS V14.00,2013-04-29 22:30:00,
2013-04-29 18:34:00,60.7,46.3,30.14,SSE,155,9.5,12.9,59,0.00,,OVC,0.00,VWS V14.00,2013-04-29 22:34:00,
2013-04-29 18:39:00,60.5,46.2,30.14,SSE,158,6.8,14.2,59,0.00,,OVC,0.00,VWS V14.00,2013-04-29 22:39:00,
2013-04-29 18:44:00,60.4,46.7,30.14,South,170,4.7,14.2,60,0.00,,OVC,0.00,VWS V14.00,2013-04-29 22:44:00,
2013-04-29 18:49:00,60.2,46.4,30.14,South,181,8.5,14.2,60,0.00,,OVC,0.00,VWS V14.00,2013-04-29 22:49:00,
2013-04-29 18:54:00,60.2,46.6,30.14,SSW,195,3.7,14.2,61,0.00,,OVC,0.00,VWS V14.00,2013-04-29 22:54:00,
2013-04-29 18:59:00,59.9,46.3,30.15,SSW,208,3.6,9.6,61,0.00,,OVC,0.00,VWS V14.00,2013-04-29 22:59:00,
2013-04-29 19:00:00,60.8,46.1,30.14,SSE,153,11.1,14.0,58,0.00,,SCT,0.00,VWS V14.00,2013-04-29 23:00:00,
2013-04-29 19:04:00,59.9,46.6,30.15,South,180,5.2,12.0,61,0.00,,OVC,0.00,VWS V14.00,2013-04-29 23:04:00,
2013-04-29 19:09:00,60.1,46.8,30.15,SSW,205,3.5,12.0,61,0.00,,OVC,0.00,VWS V14.00,2013-04-29 23:09:00,
2013-04-29 19:14:00,59.9,46.6,30.15,SSE,163,6.1,12.0,61,0.00,,OVC,0.00,VWS V14.00,2013-04-29 23:14:00,
2013-04-29 19:19:00,60.0,46.8,30.15,South,183,2.7,12.0,62,0.00,,OVC,0.00,VWS V14.00,2013-04-29 23:19:00,
2013-04-29 19:24:00,59.6,46.4,30.15,South,174,8.9,12.0,62,0.00,,OVC,0.00,VWS V14.00,2013-04-29 23:24:00,
2013-04-29 19:29:00,59.7,46.4,30.15,SE,132,11.6,12.9,61,0.00,,OVC,0.00,VWS V14.00,2013-04-29 23:29:00,
2013-04-29 19:30:00,60.8,46.4,30.14,SE,134,5.3,15.5,59,0.00,,SCT,0.00,VWS V14.00,2013-04-29 23:30:00,
2013-04-29 19:34:00,59.6,46.5,30.15,SSE,159,5.3,12.9,62,0.00,,OVC,0.00,VWS V14.00,2013-04-29 23:34:00,
2013-04-29 19:39:00,59.5,46.4,30.15,SSE,158,7.2,14.1,62,0.00,,OVC,0.00,VWS V14.00,2013-04-29 23:39:00,
2013-04-29 19:44:00,59.5,46.5,30.15,SSE,167,4.2,14.1,62,0.00,,OVC,0.00,VWS V14.00,2013-04-29 23:44:00,
2013-04-29 19:49:00,59.5,46.8,30.15,SSE,160,3.5,14.1,63,0.00,,OVC,0.00,VWS V14.00,2013-04-29 23:49:00,
2013-04-29 19:54:00,59.4,46.8,30.15,SSW,193,2.5,14.1,63,0.00,,OVC,0.00,VWS V14.00,2013-04-29 23:54:00,
2013-04-29 19:59:00,59.3,46.6,30.15,South,180,4.6,8.1,63,0.00,,OVC,0.00,VWS V14.00,2013-04-29 23:59:00,
2013-04-29 20:00:00,60.1,46.5,30.15,SSW,195,5.8,14.2,61,0.00,,SCT,0.00,VWS V14.00,2013-04-30 00:00:00,
2013-04-29 20:04:00,59.2,46.7,30.16,South,187,6.4,9.6,63,0.00,,OVC,0.00,VWS V14.00,2013-04-30 00:04:00,
2013-04-29 20:09:00,59.2,46.7,30.16,SSE,152,4.2,9.6,63,0.00,,OVC,0.00,VWS V14.00,2013-04-30 00:09:00,
2013-04-29 20:14:00,59.1,46.6,30.16,SSE,153,6.5,13.7,63,0.00,,OVC,0.00,VWS V14.00,2013-04-30 00:14:00,
2013-04-29 20:19:00,59.1,46.6,30.16,SSE,149,3.6,13.7,63,0.00,,OVC,0.00,VWS V14.00,2013-04-30 00:19:00,
2013-04-29 20:24:00,59.1,46.7,30.16,South,186,3.8,13.7,64,0.00,,OVC,0.00,VWS V14.00,2013-04-30 00:24:00,
2013-04-29 20:29:00,59.0,46.7,30.16,SE,143,6.3,7.9,64,0.00,,OVC,0.00,VWS V14.00,2013-04-30 00:29:00,
2013-04-29 20:30:00,59.7,46.6,30.15,SSE,150,8.3,12.9,62,0.00,,SCT,0.00,VWS V14.00,2013-04-30 00:30:00,
2013-04-29 20:34:00,59.0,46.8,30.16,South,176,5.3,7.9,64,0.00,,OVC,0.00,VWS V14.00,2013-04-30 00:34:00,
2013-04-29 20:39:00,58.9,46.6,30.17,South,172,5.0,9.4,64,0.00,,OVC,0.00,VWS V14.00,2013-04-30 00:39:00,
2013-04-29 20:44:00,59.0,46.8,30.17,South,169,4.0,9.4,64,0.00,,OVC,0.00,VWS V14.00,2013-04-30 00:44:00,
2013-04-29 20:49:00,59.0,46.7,30.17,South,173,4.9,11.4,64,0.00,,OVC,0.00,VWS V14.00,2013-04-30 00:49:00,
2013-04-29 20:54:00,58.9,46.6,30.17,South,169,7.3,11.5,64,0.00,,OVC,0.00,VWS V14.00,2013-04-30 00:54:00,
2013-04-29 20:59:00,58.9,46.8,30.17,South,177,7.3,8.0,64,0.00,,OVC,0.00,VWS V14.00,2013-04-30 00:59:00,
2013-04-29 21:00:00,59.3,46.6,30.16,SE,146,6.5,14.1,63,0.00,,SCT,0.00,VWS V14.00,2013-04-30 01:00:00,
2013-04-29 21:04:00,58.8,46.8,30.17,South,187,4.2,8.3,64,0.00,,OVC,0.00,VWS V14.00,2013-04-30 01:04:00,
2013-04-29 21:09:00,58.8,46.8,30.18,South,179,1.7,8.3,64,0.00,,OVC,0.00,VWS V14.00,2013-04-30 01:09:00,
2013-04-29 21:14:00,58.7,46.8,30.18,SSE,156,4.4,8.3,65,0.00,,OVC,0.00,VWS V14.00,2013-04-30 01:14:00,
2013-04-29 21:19:00,58.7,46.9,30.18,SE,145,2.1,8.3,65,0.00,,OVC,0.00,VWS V14.00,2013-04-30 01:19:00,
2013-04-29 21:24:00,58.6,46.9,30.18,SE,124,1.7,8.3,65,0.00,,OVC,0.00,VWS V14.00,2013-04-30 01:24:00,
2013-04-29 21:29:00,58.7,47.0,30.18,South,186,2.5,6.5,65,0.00,,OVC,0.00,VWS V14.00,2013-04-30 01:29:00,
2013-04-29 21:30:00,59.1,46.8,30.16,SSE,166,4.1,13.7,64,0.00,,SCT,0.00,VWS V14.00,2013-04-30 01:30:00,
2013-04-29 21:35:00,58.3,46.6,30.18,SSE,165,7.7,7.7,65,0.00,,OVC,0.00,VWS V14.00,2013-04-30 01:35:00,
2013-04-29 21:40:00,58.3,46.6,30.18,SSE,158,10.1,10.1,65,0.00,,OVC,0.00,VWS V14.00,2013-04-30 01:40:00,
2013-04-29 21:45:00,58.3,46.7,30.18,SSE,166,4.5,10.4,65,0.00,,OVC,0.00,VWS V14.00,2013-04-30 01:45:00,
2013-04-29 21:50:00,58.3,46.8,30.18,ENE,77,1.6,10.4,66,0.00,,OVC,0.00,VWS V14.00,2013-04-30 01:50:00,
2013-04-29 21:55:00,58.1,46.8,30.18,SSW,202,5.0,10.4,66,0.00,,OVC,0.00,VWS V14.00,2013-04-30 01:55:00,
2013-04-29 22:00:00,58.3,47.0,30.18,South,181,3.3,4.9,66,0.00,,OVC,0.00,VWS V14.00,2013-04-30 02:00:00,
2013-04-29 22:05:00,58.1,46.9,30.18,SE,143,2.4,7.0,66,0.00,,OVC,0.00,VWS V14.00,2013-04-30 02:05:00,
2013-04-29 22:10:00,58.0,46.8,30.18,SE,138,3.9,7.0,66,0.00,,OVC,0.00,VWS V14.00,2013-04-30 02:10:00,
2013-04-29 22:15:00,58.1,47.0,30.18,South,173,6.8,7.0,66,0.00,,OVC,0.00,VWS V14.00,2013-04-30 02:15:00,
2013-04-29 22:20:00,58.0,46.8,30.18,SSE,167,5.8,7.1,66,0.00,,OVC,0.00,VWS V14.00,2013-04-30 02:20:00,
2013-04-29 22:25:00,57.9,46.7,30.18,South,183,3.5,9.3,66,0.00,,OVC,0.00,VWS V14.00,2013-04-30 02:25:00,
2013-04-29 22:30:00,57.8,46.7,30.18,South,181,7.0,8.1,66,0.00,,OVC,0.00,VWS V14.00,2013-04-30 02:30:00,
2013-04-29 22:35:00,57.9,46.7,30.18,SSE,152,3.6,10.6,66,0.00,,OVC,0.00,VWS V14.00,2013-04-30 02:35:00,
2013-04-29 22:40:00,57.7,46.5,30.18,SSE,159,10.7,11.2,66,0.00,,OVC,0.00,VWS V14.00,2013-04-30 02:40:00,
2013-04-29 22:45:00,57.7,46.6,30.18,SSE,167,5.3,12.4,66,0.00,,OVC,0.00,VWS V14.00,2013-04-30 02:45:00,
2013-04-29 22:50:00,57.6,46.6,30.18,SSE,156,4.9,12.4,67,0.00,,OVC,0.00,VWS V14.00,2013-04-30 02:50:00,
2013-04-29 22:55:00,57.7,46.8,30.18,SE,142,4.2,12.4,67,0.00,,OVC,0.00,VWS V14.00,2013-04-30 02:55:00,
2013-04-29 23:00:00,57.6,46.7,30.18,SSE,149,5.8,8.3,67,0.00,,OVC,0.00,VWS V14.00,2013-04-30 03:00:00,
2013-04-29 23:05:00,57.5,46.7,30.18,SE,141,5.3,9.7,67,0.00,,OVC,0.00,VWS V14.00,2013-04-30 03:05:00,
2013-04-29 23:10:00,57.4,46.7,30.18,South,172,5.7,11.3,67,0.00,,OVC,0.00,VWS V14.00,2013-04-30 03:10:00,
2013-04-29 23:15:00,57.4,46.7,30.18,SSW,195,7.0,11.5,68,0.00,,OVC,0.00,VWS V14.00,2013-04-30 03:15:00,
2013-04-29 23:20:00,57.4,46.8,30.18,ENE,63,0.0,11.5,68,0.00,,OVC,0.00,VWS V14.00,2013-04-30 03:20:00,
2013-04-29 23:25:00,57.4,46.7,30.18,South,174,4.7,11.5,67,0.00,,OVC,0.00,VWS V14.00,2013-04-30 03:25:00,
2013-04-29 23:30:00,57.3,46.7,30.18,SE,136,5.9,10.4,68,0.00,,OVC,0.00,VWS V14.00,2013-04-30 03:30:00,
2013-04-29 23:35:00,57.4,46.8,30.18,SSE,163,6.3,10.4,68,0.00,,OVC,0.00,VWS V14.00,2013-04-30 03:35:00,
2013-04-29 23:40:00,57.3,46.8,30.18,South,176,4.8,10.4,68,0.00,,OVC,0.00,VWS V14.00,2013-04-30 03:40:00,
2013-04-29 23:45:00,57.3,46.8,30.18,SSE,149,4.9,10.4,68,0.00,,OVC,0.00,VWS V14.00,2013-04-30 03:45:00,
2013-04-29 23:50:00,57.3,46.8,30.18,South,174,2.5,10.4,68,0.00,,OVC,0.00,VWS V14.00,2013-04-30 03:50:00,
2013-04-29 23:55:00,57.3,46.9,30.18,SE,143,2.3,10.4,68,0.00,,OVC,0.00,VWS V14.00,2013-04-30 03:55:00,